Terminal Aerodrome Forecast
Issued by NWS

Home | Current Version | Previous Version | Text Only | Print | Product List | Glossary On
Versions: 1 2 3 4 5 6 7 8 9 10 11 12
000
FTAK31 PAJN 221700
TAFAKT
TAF
PAKT 221731Z 2218/2318 33010KT P6SM SCT200
     FM230600 VRB05KT P6SM SCT100 BKN200
     FM231200 16005KT P6SM -SHRA FEW010 SCT030 OVC060
      AMD LTD TO CLD VIS AND WIND 2306/2315=

USA.gov is the U.S. government's official web portal to all federal, state and local government web resources and services.